sensor_id;sensor_type;location;lat;lon;timestamp;temperature;humidity
60309;DHT22;50313;52.894;6.492;2023-02-26T00:00:56;0.70;99.90
60309;DHT22;50313;52.894;6.492;2023-02-26T00:03:22;0.70;99.90
60309;DHT22;50313;52.894;6.492;2023-02-26T00:05:47;0.60;99.90
60309;DHT22;50313;52.894;6.492;2023-02-26T00:08:13;0.60;99.90
60309;DHT22;50313;52.894;6.492;2023-02-26T00:10:39;0.60;99.90
60309;DHT22;50313;52.894;6.492;2023-02-26T00:13:04;0.50;99.90
60309;DHT22;50313;52.894;6.492;2023-02-26T00:15:30;0.40;99.90
60309;DHT22;50313;52.894;6.492;2023-02-26T00:18:08;0.40;99.90
60309;DHT22;50313;52.894;6.492;2023-02-26T00:20:36;0.40;99.90
60309;DHT22;50313;52.894;6.492;2023-02-26T00:23:02;0.30;99.90
60309;DHT22;50313;52.894;6.492;2023-02-26T00:25:28;0.30;99.90
60309;DHT22;50313;52.894;6.492;2023-02-26T00:27:54;0.20;99.90
60309;DHT22;50313;52.894;6.492;2023-02-26T00:30:20;0.10;99.90
60309;DHT22;50313;52.894;6.492;2023-02-26T00:32:46;0.00;99.90
60309;DHT22;50313;52.894;6.492;2023-02-26T00:35:15;-0.10;99.90
60309;DHT22;50313;52.894;6.492;2023-02-26T00:42:59;-0.30;99.90
60309;DHT22;50313;52.894;6.492;2023-02-26T00:45:25;-0.40;99.90
60309;DHT22;50313;52.894;6.492;2023-02-26T00:50:34;-0.50;99.90
60309;DHT22;50313;52.894;6.492;2023-02-26T00:53:02;-0.60;99.90
60309;DHT22;50313;52.894;6.492;2023-02-26T00:55:29;-0.50;99.90
60309;DHT22;50313;52.894;6.492;2023-02-26T00:57:55;-0.50;99.90
60309;DHT22;50313;52.894;6.492;2023-02-26T01:00:21;-0.40;99.90
60309;DHT22;50313;52.894;6.492;2023-02-26T01:02:47;-0.20;99.90
60309;DHT22;50313;52.894;6.492;2023-02-26T01:05:13;-0.20;99.90
60309;DHT22;50313;52.894;6.492;2023-02-26T01:07:49;-0.20;99.90
60309;DHT22;50313;52.894;6.492;2023-02-26T01:10:19;-0.10;99.90
60309;DHT22;50313;52.894;6.492;2023-02-26T01:12:45;0.00;99.90
60309;DHT22;50313;52.894;6.492;2023-02-26T01:15:11;0.00;99.90
60309;DHT22;50313;52.894;6.492;2023-02-26T01:17:45;0.00;99.90
60309;DHT22;50313;52.894;6.492;2023-02-26T01:20:21;0.10;99.90
60309;DHT22;50313;52.894;6.492;2023-02-26T01:22:56;0.00;99.90
60309;DHT22;50313;52.894;6.492;2023-02-26T01:25:28;0.00;99.90
60309;DHT22;50313;52.894;6.492;2023-02-26T01:27:55;0.00;99.90
60309;DHT22;50313;52.894;6.492;2023-02-26T01:30:22;0.10;99.90
60309;DHT22;50313;52.894;6.492;2023-02-26T01:36:00;0.00;99.90
60309;DHT22;50313;52.894;6.492;2023-02-26T01:38:51;0.00;99.90
60309;DHT22;50313;52.894;6.492;2023-02-26T01:41:37;0.00;99.90
60309;DHT22;50313;52.894;6.492;2023-02-26T01:47:00;0.10;99.90
60309;DHT22;50313;52.894;6.492;2023-02-26T01:49:28;0.10;99.90
60309;DHT22;50313;52.894;6.492;2023-02-26T01:52:00;0.00;99.90
60309;DHT22;50313;52.894;6.492;2023-02-26T01:54:32;0.00;99.90
60309;DHT22;50313;52.894;6.492;2023-02-26T01:57:08;-0.10;99.90
60309;DHT22;50313;52.894;6.492;2023-02-26T01:59:38;-0.10;99.90
60309;DHT22;50313;52.894;6.492;2023-02-26T02:02:07;-0.10;99.90
60309;DHT22;50313;52.894;6.492;2023-02-26T02:04:33;-0.10;99.90
60309;DHT22;50313;52.894;6.492;2023-02-26T02:06:59;-0.10;99.90
60309;DHT22;50313;52.894;6.492;2023-02-26T02:09:25;-0.10;99.90
60309;DHT22;50313;52.894;6.492;2023-02-26T02:35:06;-0.30;99.90
60309;DHT22;50313;52.894;6.492;2023-02-26T02:37:45;-0.30;99.90
60309;DHT22;50313;52.894;6.492;2023-02-26T02:40:20;-0.40;99.90
60309;DHT22;50313;52.894;6.492;2023-02-26T02:43:15;-0.30;99.90
60309;DHT22;50313;52.894;6.492;2023-02-26T02:48:30;-0.30;99.90
60309;DHT22;50313;52.894;6.492;2023-02-26T02:53:54;-0.30;99.90
60309;DHT22;50313;52.894;6.492;2023-02-26T02:59:33;-0.40;99.90
60309;DHT22;50313;52.894;6.492;2023-02-26T03:04:46;-0.40;99.90
60309;DHT22;50313;52.894;6.492;2023-02-26T03:07:12;-0.50;99.90
60309;DHT22;50313;52.894;6.492;2023-02-26T03:09:38;-0.50;99.90
60309;DHT22;50313;52.894;6.492;2023-02-26T03:12:05;-0.40;99.90
60309;DHT22;50313;52.894;6.492;2023-02-26T03:14:31;-0.50;99.90
60309;DHT22;50313;52.894;6.492;2023-02-26T03:24:58;-0.60;99.90
60309;DHT22;50313;52.894;6.492;2023-02-26T03:30:02;-0.80;99.90
60309;DHT22;50313;52.894;6.492;2023-02-26T03:35:28;-0.90;99.90
60309;DHT22;50313;52.894;6.492;2023-02-26T03:37:59;-1.00;99.90
60309;DHT22;50313;52.894;6.492;2023-02-26T03:40:49;-1.00;99.90
60309;DHT22;50313;52.894;6.492;2023-02-26T03:43:22;-1.00;99.90
60309;DHT22;50313;52.894;6.492;2023-02-26T03:45:52;-1.10;99.90
60309;DHT22;50313;52.894;6.492;2023-02-26T03:48:25;-1.10;99.90
60309;DHT22;50313;52.894;6.492;2023-02-26T03:50:55;-1.20;99.90
60309;DHT22;50313;52.894;6.492;2023-02-26T03:53:25;-1.20;99.90
60309;DHT22;50313;52.894;6.492;2023-02-26T03:56:00;-1.10;99.90
60309;DHT22;50313;52.894;6.492;2023-02-26T03:58:28;-1.20;99.90
60309;DHT22;50313;52.894;6.492;2023-02-26T04:01:00;-1.20;99.90
60309;DHT22;50313;52.894;6.492;2023-02-26T04:03:48;-1.30;99.90
60309;DHT22;50313;52.894;6.492;2023-02-26T04:06:15;-1.40;99.90
60309;DHT22;50313;52.894;6.492;2023-02-26T04:08:41;-1.40;99.90
60309;DHT22;50313;52.894;6.492;2023-02-26T04:11:11;-1.40;99.90
60309;DHT22;50313;52.894;6.492;2023-02-26T04:13:39;-1.40;99.90
60309;DHT22;50313;52.894;6.492;2023-02-26T04:16:05;-1.50;99.90
60309;DHT22;50313;52.894;6.492;2023-02-26T04:18:31;-1.50;99.90
60309;DHT22;50313;52.894;6.492;2023-02-26T04:20:57;-1.40;99.90
60309;DHT22;50313;52.894;6.492;2023-02-26T04:23:22;-1.60;99.90
60309;DHT22;50313;52.894;6.492;2023-02-26T04:25:48;-1.60;99.90
60309;DHT22;50313;52.894;6.492;2023-02-26T04:28:14;-1.60;99.90
60309;DHT22;50313;52.894;6.492;2023-02-26T04:30:40;-1.70;99.90
60309;DHT22;50313;52.894;6.492;2023-02-26T04:33:05;-1.70;99.90
60309;DHT22;50313;52.894;6.492;2023-02-26T04:35:31;-1.80;99.90
60309;DHT22;50313;52.894;6.492;2023-02-26T04:37:58;-1.80;99.90
60309;DHT22;50313;52.894;6.492;2023-02-26T04:40:23;-1.90;99.90
60309;DHT22;50313;52.894;6.492;2023-02-26T04:42:49;-1.90;99.90
60309;DHT22;50313;52.894;6.492;2023-02-26T04:45:15;-1.90;99.90
60309;DHT22;50313;52.894;6.492;2023-02-26T04:47:41;-1.90;99.90
60309;DHT22;50313;52.894;6.492;2023-02-26T04:50:08;-1.90;99.90
60309;DHT22;50313;52.894;6.492;2023-02-26T04:52:34;-1.90;99.90
60309;DHT22;50313;52.894;6.492;2023-02-26T04:55:00;-1.80;99.90
60309;DHT22;50313;52.894;6.492;2023-02-26T04:57:25;-1.80;99.90
60309;DHT22;50313;52.894;6.492;2023-02-26T04:59:51;-1.90;99.90
60309;DHT22;50313;52.894;6.492;2023-02-26T05:02:17;-1.80;99.90
60309;DHT22;50313;52.894;6.492;2023-02-26T05:04:43;-1.90;99.90
60309;DHT22;50313;52.894;6.492;2023-02-26T05:07:09;-1.90;99.90
60309;DHT22;50313;52.894;6.492;2023-02-26T05:09:35;-2.00;99.90
60309;DHT22;50313;52.894;6.492;2023-02-26T05:12:00;-2.00;99.90
60309;DHT22;50313;52.894;6.492;2023-02-26T05:14:26;-2.00;99.90
60309;DHT22;50313;52.894;6.492;2023-02-26T05:16:52;-2.00;99.90
60309;DHT22;50313;52.894;6.492;2023-02-26T05:19:18;-2.00;99.90
60309;DHT22;50313;52.894;6.492;2023-02-26T05:21:43;-2.00;99.90
60309;DHT22;50313;52.894;6.492;2023-02-26T05:24:09;-2.00;99.90
60309;DHT22;50313;52.894;6.492;2023-02-26T05:26:35;-2.00;99.90
60309;DHT22;50313;52.894;6.492;2023-02-26T05:29:00;-2.00;99.90
60309;DHT22;50313;52.894;6.492;2023-02-26T05:31:26;-2.00;99.90
60309;DHT22;50313;52.894;6.492;2023-02-26T05:33:53;-2.00;99.90
60309;DHT22;50313;52.894;6.492;2023-02-26T05:36:18;-2.00;99.90
60309;DHT22;50313;52.894;6.492;2023-02-26T05:38:44;-2.00;99.90
60309;DHT22;50313;52.894;6.492;2023-02-26T05:41:10;-2.00;99.90
60309;DHT22;50313;52.894;6.492;2023-02-26T05:43:35;-2.00;99.90
60309;DHT22;50313;52.894;6.492;2023-02-26T05:46:02;-2.00;99.90
60309;DHT22;50313;52.894;6.492;2023-02-26T05:48:27;-2.00;99.90
60309;DHT22;50313;52.894;6.492;2023-02-26T05:50:53;-2.10;99.90
60309;DHT22;50313;52.894;6.492;2023-02-26T05:53:19;-2.10;99.90
60309;DHT22;50313;52.894;6.492;2023-02-26T05:55:45;-2.10;99.90
60309;DHT22;50313;52.894;6.492;2023-02-26T05:58:11;-2.10;99.90
60309;DHT22;50313;52.894;6.492;2023-02-26T06:00:37;-2.10;99.90
60309;DHT22;50313;52.894;6.492;2023-02-26T06:03:02;-2.10;99.90
60309;DHT22;50313;52.894;6.492;2023-02-26T06:05:36;-2.00;99.90
60309;DHT22;50313;52.894;6.492;2023-02-26T06:08:03;-2.10;99.90
60309;DHT22;50313;52.894;6.492;2023-02-26T06:10:30;-2.00;99.90
60309;DHT22;50313;52.894;6.492;2023-02-26T06:12:56;-1.90;99.90
60309;DHT22;50313;52.894;6.492;2023-02-26T06:15:22;-1.90;99.90
60309;DHT22;50313;52.894;6.492;2023-02-26T06:17:48;-1.90;99.90
60309;DHT22;50313;52.894;6.492;2023-02-26T06:20:14;-1.60;99.90
60309;DHT22;50313;52.894;6.492;2023-02-26T06:22:47;-1.80;99.90
60309;DHT22;50313;52.894;6.492;2023-02-26T06:25:13;-1.80;99.90
60309;DHT22;50313;52.894;6.492;2023-02-26T06:27:38;-1.60;99.90
60309;DHT22;50313;52.894;6.492;2023-02-26T06:30:05;-1.70;99.90
60309;DHT22;50313;52.894;6.492;2023-02-26T06:32:30;-1.60;99.90
60309;DHT22;50313;52.894;6.492;2023-02-26T06:34:56;-1.60;99.90
60309;DHT22;50313;52.894;6.492;2023-02-26T06:37:22;-1.60;99.90
60309;DHT22;50313;52.894;6.492;2023-02-26T06:39:48;-1.50;99.90
60309;DHT22;50313;52.894;6.492;2023-02-26T06:42:13;-1.50;99.90
60309;DHT22;50313;52.894;6.492;2023-02-26T06:44:39;-1.50;99.90
60309;DHT22;50313;52.894;6.492;2023-02-26T06:47:05;-1.50;99.90
60309;DHT22;50313;52.894;6.492;2023-02-26T06:49:30;-1.50;99.90
60309;DHT22;50313;52.894;6.492;2023-02-26T06:51:56;-1.40;99.90
60309;DHT22;50313;52.894;6.492;2023-02-26T06:54:22;-1.40;99.90
60309;DHT22;50313;52.894;6.492;2023-02-26T06:56:48;-1.40;99.90
60309;DHT22;50313;52.894;6.492;2023-02-26T06:59:13;-1.30;99.90
60309;DHT22;50313;52.894;6.492;2023-02-26T07:01:40;-1.30;99.90
60309;DHT22;50313;52.894;6.492;2023-02-26T07:04:05;-1.30;99.90
60309;DHT22;50313;52.894;6.492;2023-02-26T07:06:31;-1.20;99.90
60309;DHT22;50313;52.894;6.492;2023-02-26T07:08:57;-1.20;99.90
60309;DHT22;50313;52.894;6.492;2023-02-26T07:11:23;-1.10;99.90
60309;DHT22;50313;52.894;6.492;2023-02-26T07:13:49;-1.10;99.90
60309;DHT22;50313;52.894;6.492;2023-02-26T07:16:16;-1.10;99.90
60309;DHT22;50313;52.894;6.492;2023-02-26T07:18:42;-1.00;99.90
60309;DHT22;50313;52.894;6.492;2023-02-26T07:21:08;-0.80;99.90
60309;DHT22;50313;52.894;6.492;2023-02-26T07:23:33;-0.80;99.90
60309;DHT22;50313;52.894;6.492;2023-02-26T07:25:59;-0.70;99.90
60309;DHT22;50313;52.894;6.492;2023-02-26T07:28:25;-0.60;99.90
60309;DHT22;50313;52.894;6.492;2023-02-26T07:30:54;-0.60;99.90
60309;DHT22;50313;52.894;6.492;2023-02-26T07:33:20;-0.50;99.90
60309;DHT22;50313;52.894;6.492;2023-02-26T07:35:46;-0.40;99.90
60309;DHT22;50313;52.894;6.492;2023-02-26T07:38:12;-0.40;99.90
60309;DHT22;50313;52.894;6.492;2023-02-26T07:40:38;-0.20;99.90
60309;DHT22;50313;52.894;6.492;2023-02-26T07:43:04;-0.30;99.90
60309;DHT22;50313;52.894;6.492;2023-02-26T07:45:29;-0.20;99.90
60309;DHT22;50313;52.894;6.492;2023-02-26T07:47:55;-0.10;99.90
60309;DHT22;50313;52.894;6.492;2023-02-26T07:50:21;0.00;99.90
60309;DHT22;50313;52.894;6.492;2023-02-26T07:52:51;0.00;99.90
60309;DHT22;50313;52.894;6.492;2023-02-26T07:55:18;0.10;99.90
60309;DHT22;50313;52.894;6.492;2023-02-26T07:57:44;0.10;99.90
60309;DHT22;50313;52.894;6.492;2023-02-26T08:00:11;0.30;99.90
60309;DHT22;50313;52.894;6.492;2023-02-26T08:02:36;0.30;99.90
60309;DHT22;50313;52.894;6.492;2023-02-26T08:05:02;0.40;99.90
60309;DHT22;50313;52.894;6.492;2023-02-26T08:07:28;0.50;99.90
60309;DHT22;50313;52.894;6.492;2023-02-26T08:09:54;0.60;99.90
60309;DHT22;50313;52.894;6.492;2023-02-26T08:12:19;0.70;99.90
60309;DHT22;50313;52.894;6.492;2023-02-26T08:14:45;0.70;99.90
60309;DHT22;50313;52.894;6.492;2023-02-26T08:17:12;0.70;99.90
60309;DHT22;50313;52.894;6.492;2023-02-26T08:19:38;0.80;99.90
60309;DHT22;50313;52.894;6.492;2023-02-26T08:22:04;0.90;99.90
60309;DHT22;50313;52.894;6.492;2023-02-26T08:24:29;0.90;99.90
60309;DHT22;50313;52.894;6.492;2023-02-26T08:26:55;1.10;99.90
60309;DHT22;50313;52.894;6.492;2023-02-26T08:29:21;1.20;99.90
60309;DHT22;50313;52.894;6.492;2023-02-26T08:31:47;1.40;99.90
60309;DHT22;50313;52.894;6.492;2023-02-26T08:34:13;1.60;99.90
60309;DHT22;50313;52.894;6.492;2023-02-26T08:36:39;1.80;99.90
60309;DHT22;50313;52.894;6.492;2023-02-26T08:39:05;1.90;99.90
60309;DHT22;50313;52.894;6.492;2023-02-26T08:41:31;2.10;99.90
60309;DHT22;50313;52.894;6.492;2023-02-26T08:43:58;2.20;99.90
60309;DHT22;50313;52.894;6.492;2023-02-26T08:46:24;2.40;99.90
60309;DHT22;50313;52.894;6.492;2023-02-26T08:48:50;2.60;99.90
60309;DHT22;50313;52.894;6.492;2023-02-26T08:51:15;2.60;99.90
60309;DHT22;50313;52.894;6.492;2023-02-26T08:53:41;2.60;99.90
60309;DHT22;50313;52.894;6.492;2023-02-26T08:56:09;2.70;99.90
60309;DHT22;50313;52.894;6.492;2023-02-26T08:58:35;2.80;99.90
60309;DHT22;50313;52.894;6.492;2023-02-26T09:01:01;2.90;99.90
60309;DHT22;50313;52.894;6.492;2023-02-26T09:03:27;2.80;99.90
60309;DHT22;50313;52.894;6.492;2023-02-26T09:05:52;2.90;99.80
60309;DHT22;50313;52.894;6.492;2023-02-26T09:08:18;2.90;99.90
60309;DHT22;50313;52.894;6.492;2023-02-26T09:10:45;3.00;99.70
60309;DHT22;50313;52.894;6.492;2023-02-26T09:13:11;3.00;99.90
60309;DHT22;50313;52.894;6.492;2023-02-26T09:15:37;3.00;98.60
60309;DHT22;50313;52.894;6.492;2023-02-26T09:18:03;3.10;99.60
60309;DHT22;50313;52.894;6.492;2023-02-26T09:20:29;3.20;99.90
60309;DHT22;50313;52.894;6.492;2023-02-26T09:22:55;3.20;98.60
60309;DHT22;50313;52.894;6.492;2023-02-26T09:25:20;3.30;98.30
60309;DHT22;50313;52.894;6.492;2023-02-26T09:27:46;3.40;98.00
60309;DHT22;50313;52.894;6.492;2023-02-26T09:30:12;3.50;98.30
60309;DHT22;50313;52.894;6.492;2023-02-26T09:32:38;3.50;97.70
60309;DHT22;50313;52.894;6.492;2023-02-26T09:35:11;3.60;98.10
60309;DHT22;50313;52.894;6.492;2023-02-26T09:37:37;3.60;97.30
60309;DHT22;50313;52.894;6.492;2023-02-26T09:40:05;3.70;97.70
60309;DHT22;50313;52.894;6.492;2023-02-26T09:42:50;3.80;97.70
60309;DHT22;50313;52.894;6.492;2023-02-26T09:45:32;3.80;97.60
60309;DHT22;50313;52.894;6.492;2023-02-26T09:48:02;3.80;96.90
60309;DHT22;50313;52.894;6.492;2023-02-26T09:50:50;3.90;96.50
60309;DHT22;50313;52.894;6.492;2023-02-26T09:53:31;3.90;96.40
60309;DHT22;50313;52.894;6.492;2023-02-26T09:56:23;3.90;96.00
60309;DHT22;50313;52.894;6.492;2023-02-26T09:58:50;4.10;96.30
60309;DHT22;50313;52.894;6.492;2023-02-26T10:01:26;4.10;96.70
60309;DHT22;50313;52.894;6.492;2023-02-26T10:04:00;4.20;95.80
60309;DHT22;50313;52.894;6.492;2023-02-26T10:06:34;4.20;96.10
60309;DHT22;50313;52.894;6.492;2023-02-26T10:09:19;4.20;95.60
60309;DHT22;50313;52.894;6.492;2023-02-26T10:12:11;4.30;95.20
60309;DHT22;50313;52.894;6.492;2023-02-26T10:17:33;4.30;94.10
60309;DHT22;50313;52.894;6.492;2023-02-26T10:20:05;4.40;94.60
60309;DHT22;50313;52.894;6.492;2023-02-26T10:23:05;4.40;94.00
60309;DHT22;50313;52.894;6.492;2023-02-26T10:25:39;4.50;93.80
60309;DHT22;50313;52.894;6.492;2023-02-26T10:31:17;4.50;93.70
60309;DHT22;50313;52.894;6.492;2023-02-26T10:42:12;4.80;94.20
60309;DHT22;50313;52.894;6.492;2023-02-26T10:45:10;4.80;93.60
60309;DHT22;50313;52.894;6.492;2023-02-26T10:50:34;4.80;93.00
60309;DHT22;50313;52.894;6.492;2023-02-26T10:53:00;5.00;93.90
60309;DHT22;50313;52.894;6.492;2023-02-26T10:58:11;5.20;93.80
60309;DHT22;50313;52.894;6.492;2023-02-26T11:00:41;5.30;93.60
60309;DHT22;50313;52.894;6.492;2023-02-26T11:03:09;5.40;93.70
60309;DHT22;50313;52.894;6.492;2023-02-26T11:05:38;5.30;93.30
60309;DHT22;50313;52.894;6.492;2023-02-26T11:08:17;5.40;92.30
60309;DHT22;50313;52.894;6.492;2023-02-26T11:10:56;5.50;92.50
60309;DHT22;50313;52.894;6.492;2023-02-26T11:13:27;5.40;92.20
60309;DHT22;50313;52.894;6.492;2023-02-26T11:15:56;5.40;92.00
60309;DHT22;50313;52.894;6.492;2023-02-26T11:21:16;5.40;91.80
60309;DHT22;50313;52.894;6.492;2023-02-26T11:23:43;5.30;92.20
60309;DHT22;50313;52.894;6.492;2023-02-26T11:26:16;5.40;92.90
60309;DHT22;50313;52.894;6.492;2023-02-26T11:28:45;5.20;92.10
60309;DHT22;50313;52.894;6.492;2023-02-26T11:31:15;5.00;92.40
60309;DHT22;50313;52.894;6.492;2023-02-26T11:33:49;5.10;92.60
60309;DHT22;50313;52.894;6.492;2023-02-26T11:36:20;5.10;92.60
60309;DHT22;50313;52.894;6.492;2023-02-26T11:38:57;5.40;92.90
60309;DHT22;50313;52.894;6.492;2023-02-26T11:41:24;5.60;92.70
60309;DHT22;50313;52.894;6.492;2023-02-26T11:44:16;5.60;92.30
60309;DHT22;50313;52.894;6.492;2023-02-26T11:46:57;5.60;92.30
60309;DHT22;50313;52.894;6.492;2023-02-26T11:49:26;5.50;91.60
60309;DHT22;50313;52.894;6.492;2023-02-26T11:52:13;5.50;92.00
60309;DHT22;50313;52.894;6.492;2023-02-26T11:54:43;5.70;93.70
60309;DHT22;50313;52.894;6.492;2023-02-26T11:57:19;5.70;91.70
60309;DHT22;50313;52.894;6.492;2023-02-26T11:59:49;5.70;91.60
60309;DHT22;50313;52.894;6.492;2023-02-26T12:02:22;5.50;92.40
60309;DHT22;50313;52.894;6.492;2023-02-26T12:04:52;5.40;92.60
60309;DHT22;50313;52.894;6.492;2023-02-26T12:07:19;5.50;92.90
60309;DHT22;50313;52.894;6.492;2023-02-26T12:09:46;5.40;92.10
60309;DHT22;50313;52.894;6.492;2023-02-26T12:48:14;6.10;90.90
60309;DHT22;50313;52.894;6.492;2023-02-26T12:53:52;6.40;88.50
60309;DHT22;50313;52.894;6.492;2023-02-26T13:05:18;6.60;90.60
60309;DHT22;50313;52.894;6.492;2023-02-26T13:24:46;6.00;90.40
60309;DHT22;50313;52.894;6.492;2023-02-26T13:27:14;6.20;90.70
60309;DHT22;50313;52.894;6.492;2023-02-26T13:29:46;6.40;90.40
60309;DHT22;50313;52.894;6.492;2023-02-26T13:32:19;6.30;89.10
60309;DHT22;50313;52.894;6.492;2023-02-26T13:34:56;6.40;90.40
60309;DHT22;50313;52.894;6.492;2023-02-26T13:59:04;7.10;91.80
60309;DHT22;50313;52.894;6.492;2023-02-26T14:01:53;7.40;91.00
60309;DHT22;50313;52.894;6.492;2023-02-26T14:07:13;7.60;90.50
60309;DHT22;50313;52.894;6.492;2023-02-26T14:09:46;7.30;90.00
60309;DHT22;50313;52.894;6.492;2023-02-26T14:12:30;7.00;90.90
60309;DHT22;50313;52.894;6.492;2023-02-26T14:17:48;7.70;92.80
60309;DHT22;50313;52.894;6.492;2023-02-26T14:20:18;7.80;91.20
60309;DHT22;50313;52.894;6.492;2023-02-26T14:23:27;7.30;90.00
60309;DHT22;50313;52.894;6.492;2023-02-26T14:26:05;6.70;91.00
60309;DHT22;50313;52.894;6.492;2023-02-26T14:34:29;7.90;89.80
60309;DHT22;50313;52.894;6.492;2023-02-26T14:37:06;7.90;86.90
60309;DHT22;50313;52.894;6.492;2023-02-26T14:39:45;8.10;87.80
60309;DHT22;50313;52.894;6.492;2023-02-26T14:42:28;7.90;88.50
60309;DHT22;50313;52.894;6.492;2023-02-26T14:47:44;6.80;91.00
60309;DHT22;50313;52.894;6.492;2023-02-26T14:50:14;6.50;92.20
60309;DHT22;50313;52.894;6.492;2023-02-26T15:09:18;7.60;85.30
60309;DHT22;50313;52.894;6.492;2023-02-26T15:26:34;8.20;84.60
60309;DHT22;50313;52.894;6.492;2023-02-26T15:29:04;7.90;85.10
60309;DHT22;50313;52.894;6.492;2023-02-26T15:31:39;7.40;86.20
60309;DHT22;50313;52.894;6.492;2023-02-26T15:34:08;7.30;88.10
60309;DHT22;50313;52.894;6.492;2023-02-26T15:36:35;6.90;90.00
60309;DHT22;50313;52.894;6.492;2023-02-26T15:39:05;7.20;89.10
60309;DHT22;50313;52.894;6.492;2023-02-26T15:41:33;7.40;88.10
60309;DHT22;50313;52.894;6.492;2023-02-26T15:44:05;7.40;86.40
60309;DHT22;50313;52.894;6.492;2023-02-26T15:46:37;7.50;86.50
60309;DHT22;50313;52.894;6.492;2023-02-26T15:49:10;7.50;85.40
60309;DHT22;50313;52.894;6.492;2023-02-26T15:51:38;7.50;85.60
60309;DHT22;50313;52.894;6.492;2023-02-26T15:54:05;7.20;84.90
60309;DHT22;50313;52.894;6.492;2023-02-26T15:56:36;6.80;86.50
60309;DHT22;50313;52.894;6.492;2023-02-26T15:59:08;6.70;88.20
60309;DHT22;50313;52.894;6.492;2023-02-26T16:01:35;6.60;90.00
60309;DHT22;50313;52.894;6.492;2023-02-26T16:04:03;6.50;91.20
60309;DHT22;50313;52.894;6.492;2023-02-26T16:06:31;6.10;91.20
60309;DHT22;50313;52.894;6.492;2023-02-26T16:08:59;5.80;91.70
60309;DHT22;50313;52.894;6.492;2023-02-26T16:11:29;5.60;92.40
60309;DHT22;50313;52.894;6.492;2023-02-26T16:13:56;5.50;93.00
60309;DHT22;50313;52.894;6.492;2023-02-26T16:16:26;5.30;93.30
60309;DHT22;50313;52.894;6.492;2023-02-26T16:18:54;5.10;93.70
60309;DHT22;50313;52.894;6.492;2023-02-26T16:21:33;5.00;93.90
60309;DHT22;50313;52.894;6.492;2023-02-26T16:24:02;4.90;94.70
60309;DHT22;50313;52.894;6.492;2023-02-26T16:26:33;4.80;95.00
60309;DHT22;50313;52.894;6.492;2023-02-26T16:29:08;4.70;95.40
60309;DHT22;50313;52.894;6.492;2023-02-26T16:31:39;4.70;95.60
60309;DHT22;50313;52.894;6.492;2023-02-26T16:36:54;4.70;96.00
60309;DHT22;50313;52.894;6.492;2023-02-26T16:39:23;4.60;96.50
60309;DHT22;50313;52.894;6.492;2023-02-26T16:42:13;4.60;96.40
60309;DHT22;50313;52.894;6.492;2023-02-26T16:44:51;4.60;96.40
60309;DHT22;50313;52.894;6.492;2023-02-26T16:47:22;4.50;96.60
60309;DHT22;50313;52.894;6.492;2023-02-26T16:49:49;4.50;96.60
60309;DHT22;50313;52.894;6.492;2023-02-26T16:52:18;4.40;96.80
60309;DHT22;50313;52.894;6.492;2023-02-26T16:54:53;4.40;97.00
60309;DHT22;50313;52.894;6.492;2023-02-26T16:57:29;4.30;97.10
60309;DHT22;50313;52.894;6.492;2023-02-26T16:59:59;4.20;97.60
60309;DHT22;50313;52.894;6.492;2023-02-26T17:02:29;4.20;97.70
60309;DHT22;50313;52.894;6.492;2023-02-26T17:04:59;4.10;98.00
60309;DHT22;50313;52.894;6.492;2023-02-26T17:07:29;4.10;98.40
60309;DHT22;50313;52.894;6.492;2023-02-26T17:09:58;4.10;98.50
60309;DHT22;50313;52.894;6.492;2023-02-26T17:12:44;4.10;98.80
60309;DHT22;50313;52.894;6.492;2023-02-26T17:15:34;4.00;99.40
60309;DHT22;50313;52.894;6.492;2023-02-26T17:18:00;4.00;99.00
60309;DHT22;50313;52.894;6.492;2023-02-26T17:20:27;4.00;99.00
60309;DHT22;50313;52.894;6.492;2023-02-26T17:22:54;3.90;99.60
60309;DHT22;50313;52.894;6.492;2023-02-26T17:25:21;3.90;99.90
60309;DHT22;50313;52.894;6.492;2023-02-26T17:27:50;3.80;99.80
60309;DHT22;50313;52.894;6.492;2023-02-26T17:30:19;3.80;99.80
60309;DHT22;50313;52.894;6.492;2023-02-26T17:32:46;3.70;99.90
60309;DHT22;50313;52.894;6.492;2023-02-26T17:35:13;3.50;99.90
60309;DHT22;50313;52.894;6.492;2023-02-26T17:37:40;3.40;99.90
60309;DHT22;50313;52.894;6.492;2023-02-26T17:40:18;3.40;99.90
60309;DHT22;50313;52.894;6.492;2023-02-26T17:42:45;3.30;99.90
60309;DHT22;50313;52.894;6.492;2023-02-26T17:45:12;3.30;99.90
60309;DHT22;50313;52.894;6.492;2023-02-26T17:47:38;3.20;99.90
60309;DHT22;50313;52.894;6.492;2023-02-26T17:50:26;3.10;99.90
60309;DHT22;50313;52.894;6.492;2023-02-26T17:52:56;3.10;99.90
60309;DHT22;50313;52.894;6.492;2023-02-26T17:55:22;3.10;99.90
60309;DHT22;50313;52.894;6.492;2023-02-26T17:57:47;3.10;99.90
60309;DHT22;50313;52.894;6.492;2023-02-26T18:00:15;3.00;99.90
60309;DHT22;50313;52.894;6.492;2023-02-26T18:02:41;3.00;99.90
60309;DHT22;50313;52.894;6.492;2023-02-26T18:05:07;3.00;99.90
60309;DHT22;50313;52.894;6.492;2023-02-26T18:07:33;2.90;99.90
60309;DHT22;50313;52.894;6.492;2023-02-26T18:09:59;2.90;99.90
60309;DHT22;50313;52.894;6.492;2023-02-26T18:12:24;2.90;99.90
60309;DHT22;50313;52.894;6.492;2023-02-26T18:14:50;2.90;99.90
60309;DHT22;50313;52.894;6.492;2023-02-26T18:17:27;2.90;99.90
60309;DHT22;50313;52.894;6.492;2023-02-26T18:19:54;3.00;99.90
60309;DHT22;50313;52.894;6.492;2023-02-26T18:22:21;3.00;99.90
60309;DHT22;50313;52.894;6.492;2023-02-26T18:24:50;3.00;99.90
60309;DHT22;50313;52.894;6.492;2023-02-26T18:27:19;3.00;99.90
60309;DHT22;50313;52.894;6.492;2023-02-26T18:29:45;2.90;99.90
60309;DHT22;50313;52.894;6.492;2023-02-26T18:32:15;2.80;99.90
60309;DHT22;50313;52.894;6.492;2023-02-26T18:34:41;2.80;99.90
60309;DHT22;50313;52.894;6.492;2023-02-26T18:37:12;2.70;99.90
60309;DHT22;50313;52.894;6.492;2023-02-26T18:39:38;2.70;99.90
60309;DHT22;50313;52.894;6.492;2023-02-26T18:42:04;2.50;99.90
60309;DHT22;50313;52.894;6.492;2023-02-26T18:44:30;2.60;99.90
60309;DHT22;50313;52.894;6.492;2023-02-26T18:46:58;2.60;99.90
60309;DHT22;50313;52.894;6.492;2023-02-26T18:49:24;2.50;99.90
60309;DHT22;50313;52.894;6.492;2023-02-26T18:51:50;2.50;99.90
60309;DHT22;50313;52.894;6.492;2023-02-26T18:54:16;2.50;99.90
60309;DHT22;50313;52.894;6.492;2023-02-26T18:56:41;2.50;99.90
60309;DHT22;50313;52.894;6.492;2023-02-26T18:59:07;2.40;99.90
60309;DHT22;50313;52.894;6.492;2023-02-26T19:01:33;2.40;99.90
60309;DHT22;50313;52.894;6.492;2023-02-26T19:03:58;2.40;99.90
60309;DHT22;50313;52.894;6.492;2023-02-26T19:06:24;2.30;99.90
60309;DHT22;50313;52.894;6.492;2023-02-26T19:08:50;2.20;99.90
60309;DHT22;50313;52.894;6.492;2023-02-26T19:11:15;2.10;99.90
60309;DHT22;50313;52.894;6.492;2023-02-26T19:13:41;2.10;99.90
60309;DHT22;50313;52.894;6.492;2023-02-26T19:16:07;2.00;99.90
60309;DHT22;50313;52.894;6.492;2023-02-26T19:18:32;1.90;99.90
60309;DHT22;50313;52.894;6.492;2023-02-26T19:20:58;1.90;99.90
60309;DHT22;50313;52.894;6.492;2023-02-26T19:23:26;1.70;99.90
60309;DHT22;50313;52.894;6.492;2023-02-26T19:25:52;1.60;99.90
60309;DHT22;50313;52.894;6.492;2023-02-26T19:28:17;1.60;99.90
60309;DHT22;50313;52.894;6.492;2023-02-26T19:30:43;1.60;99.90
60309;DHT22;50313;52.894;6.492;2023-02-26T19:33:09;1.50;99.90